sensor_id;sensor_type;location;lat;lon;timestamp;P1;durP1;ratioP1;P2;durP2;ratioP2
75417;SDS011;63997;52.112;5.420;2023-02-03T00:00:54;8.00;;;2.17;;
75417;SDS011;63997;52.112;5.420;2023-02-03T00:03:21;5.68;;;1.52;;
75417;SDS011;63997;52.112;5.420;2023-02-03T00:05:47;9.18;;;2.20;;
75417;SDS011;63997;52.112;5.420;2023-02-03T00:08:14;7.60;;;1.13;;
75417;SDS011;63997;52.112;5.420;2023-02-03T00:10:43;10.02;;;2.35;;
75417;SDS011;63997;52.112;5.420;2023-02-03T00:13:10;6.30;;;1.25;;
75417;SDS011;63997;52.112;5.420;2023-02-03T00:15:36;10.63;;;2.08;;
75417;SDS011;63997;52.112;5.420;2023-02-03T00:18:03;3.67;;;1.20;;
75417;SDS011;63997;52.112;5.420;2023-02-03T00:20:29;6.47;;;1.17;;
75417;SDS011;63997;52.112;5.420;2023-02-03T00:23:05;6.45;;;1.20;;
75417;SDS011;63997;52.112;5.420;2023-02-03T00:25:33;8.85;;;1.92;;
75417;SDS011;63997;52.112;5.420;2023-02-03T00:28:00;5.75;;;2.00;;
75417;SDS011;63997;52.112;5.420;2023-02-03T00:30:27;4.78;;;1.35;;
75417;SDS011;63997;52.112;5.420;2023-02-03T00:32:54;4.70;;;1.43;;
75417;SDS011;63997;52.112;5.420;2023-02-03T00:35:20;8.25;;;1.70;;
75417;SDS011;63997;52.112;5.420;2023-02-03T00:37:51;8.40;;;1.50;;
75417;SDS011;63997;52.112;5.420;2023-02-03T00:40:22;7.13;;;1.88;;
75417;SDS011;63997;52.112;5.420;2023-02-03T00:42:51;10.13;;;1.25;;
75417;SDS011;63997;52.112;5.420;2023-02-03T00:45:17;9.50;;;1.70;;
75417;SDS011;63997;52.112;5.420;2023-02-03T00:47:44;7.22;;;1.70;;
75417;SDS011;63997;52.112;5.420;2023-02-03T00:50:10;5.55;;;2.10;;
75417;SDS011;63997;52.112;5.420;2023-02-03T00:52:37;10.57;;;3.25;;
75417;SDS011;63997;52.112;5.420;2023-02-03T00:55:04;11.57;;;1.55;;
75417;SDS011;63997;52.112;5.420;2023-02-03T00:57:31;7.40;;;1.53;;
75417;SDS011;63997;52.112;5.420;2023-02-03T00:59:57;8.38;;;1.25;;
75417;SDS011;63997;52.112;5.420;2023-02-03T01:02:24;14.95;;;1.80;;
75417;SDS011;63997;52.112;5.420;2023-02-03T01:04:50;6.88;;;1.10;;
75417;SDS011;63997;52.112;5.420;2023-02-03T01:07:17;9.93;;;1.80;;
75417;SDS011;63997;52.112;5.420;2023-02-03T01:09:43;5.00;;;0.97;;
75417;SDS011;63997;52.112;5.420;2023-02-03T01:12:10;4.45;;;1.40;;
75417;SDS011;63997;52.112;5.420;2023-02-03T01:14:36;6.63;;;1.30;;
75417;SDS011;63997;52.112;5.420;2023-02-03T01:17:03;6.00;;;1.45;;
75417;SDS011;63997;52.112;5.420;2023-02-03T01:19:29;10.25;;;1.60;;
75417;SDS011;63997;52.112;5.420;2023-02-03T01:21:56;7.20;;;1.20;;
75417;SDS011;63997;52.112;5.420;2023-02-03T01:24:22;11.13;;;1.90;;
75417;SDS011;63997;52.112;5.420;2023-02-03T01:26:49;4.25;;;1.33;;
75417;SDS011;63997;52.112;5.420;2023-02-03T01:29:15;9.80;;;1.48;;
75417;SDS011;63997;52.112;5.420;2023-02-03T01:31:42;4.90;;;1.15;;
75417;SDS011;63997;52.112;5.420;2023-02-03T01:34:11;5.93;;;0.77;;
75417;SDS011;63997;52.112;5.420;2023-02-03T01:36:39;5.38;;;0.98;;
75417;SDS011;63997;52.112;5.420;2023-02-03T01:39:06;4.13;;;1.08;;
75417;SDS011;63997;52.112;5.420;2023-02-03T01:41:33;11.43;;;1.00;;
75417;SDS011;63997;52.112;5.420;2023-02-03T01:44:30;9.45;;;1.20;;
75417;SDS011;63997;52.112;5.420;2023-02-03T01:46:59;3.97;;;0.90;;
75417;SDS011;63997;52.112;5.420;2023-02-03T01:49:32;8.05;;;0.82;;
75417;SDS011;63997;52.112;5.420;2023-02-03T01:52:02;3.40;;;1.20;;
75417;SDS011;63997;52.112;5.420;2023-02-03T01:54:35;11.00;;;0.85;;
75417;SDS011;63997;52.112;5.420;2023-02-03T01:57:10;6.03;;;0.65;;
75417;SDS011;63997;52.112;5.420;2023-02-03T01:59:42;11.33;;;1.90;;
75417;SDS011;63997;52.112;5.420;2023-02-03T02:02:09;6.43;;;0.70;;
75417;SDS011;63997;52.112;5.420;2023-02-03T02:04:49;5.50;;;1.05;;
75417;SDS011;63997;52.112;5.420;2023-02-03T02:07:22;8.70;;;0.98;;
75417;SDS011;63997;52.112;5.420;2023-02-03T02:09:49;4.70;;;1.00;;
75417;SDS011;63997;52.112;5.420;2023-02-03T02:12:15;6.43;;;1.07;;
75417;SDS011;63997;52.112;5.420;2023-02-03T02:14:42;4.28;;;0.70;;
75417;SDS011;63997;52.112;5.420;2023-02-03T02:17:11;7.32;;;1.45;;
75417;SDS011;63997;52.112;5.420;2023-02-03T02:25:29;10.90;;;0.90;;
75417;SDS011;63997;52.112;5.420;2023-02-03T02:34:02;7.03;;;1.00;;
75417;SDS011;63997;52.112;5.420;2023-02-03T02:36:52;6.03;;;1.05;;
75417;SDS011;63997;52.112;5.420;2023-02-03T02:39:45;5.93;;;0.87;;
75417;SDS011;63997;52.112;5.420;2023-02-03T02:45:21;9.73;;;0.98;;
75417;SDS011;63997;52.112;5.420;2023-02-03T02:47:48;9.15;;;0.70;;
75417;SDS011;63997;52.112;5.420;2023-02-03T02:50:19;5.88;;;0.75;;
75417;SDS011;63997;52.112;5.420;2023-02-03T02:52:50;3.80;;;0.70;;
75417;SDS011;63997;52.112;5.420;2023-02-03T02:55:22;9.82;;;1.15;;
75417;SDS011;63997;52.112;5.420;2023-02-03T02:57:53;5.70;;;0.50;;
75417;SDS011;63997;52.112;5.420;2023-02-03T03:00:23;8.25;;;0.65;;
75417;SDS011;63997;52.112;5.420;2023-02-03T03:02:50;2.63;;;0.80;;
75417;SDS011;63997;52.112;5.420;2023-02-03T03:05:17;6.33;;;0.90;;
75417;SDS011;63997;52.112;5.420;2023-02-03T03:07:45;5.78;;;0.70;;
75417;SDS011;63997;52.112;5.420;2023-02-03T03:10:19;5.35;;;0.80;;
75417;SDS011;63997;52.112;5.420;2023-02-03T03:12:52;7.05;;;0.88;;
75417;SDS011;63997;52.112;5.420;2023-02-03T03:15:23;5.55;;;0.60;;
75417;SDS011;63997;52.112;5.420;2023-02-03T03:18:40;8.70;;;0.60;;
75417;SDS011;63997;52.112;5.420;2023-02-03T03:20:56;5.07;;;0.52;;
75417;SDS011;63997;52.112;5.420;2023-02-03T03:23:32;4.78;;;0.85;;
75417;SDS011;63997;52.112;5.420;2023-02-03T03:26:49;4.88;;;0.65;;
75417;SDS011;63997;52.112;5.420;2023-02-03T03:29:17;5.07;;;0.63;;
75417;SDS011;63997;52.112;5.420;2023-02-03T03:31:57;6.47;;;0.93;;
75417;SDS011;63997;52.112;5.420;2023-02-03T03:34:23;2.65;;;0.60;;
75417;SDS011;63997;52.112;5.420;2023-02-03T03:37:05;3.97;;;1.33;;
75417;SDS011;63997;52.112;5.420;2023-02-03T03:47:41;4.25;;;0.60;;
75417;SDS011;63997;52.112;5.420;2023-02-03T03:50:17;5.43;;;0.75;;
75417;SDS011;63997;52.112;5.420;2023-02-03T03:52:46;2.42;;;0.47;;
75417;SDS011;63997;52.112;5.420;2023-02-03T03:55:15;3.28;;;0.68;;
75417;SDS011;63997;52.112;5.420;2023-02-03T03:57:52;6.17;;;0.87;;
75417;SDS011;63997;52.112;5.420;2023-02-03T04:00:24;5.95;;;0.80;;
75417;SDS011;63997;52.112;5.420;2023-02-03T04:02:54;4.03;;;0.85;;
75417;SDS011;63997;52.112;5.420;2023-02-03T04:05:24;7.05;;;1.00;;
75417;SDS011;63997;52.112;5.420;2023-02-03T04:07:51;5.75;;;0.80;;
75417;SDS011;63997;52.112;5.420;2023-02-03T04:10:21;7.93;;;0.70;;
75417;SDS011;63997;52.112;5.420;2023-02-03T04:12:52;7.18;;;1.08;;
75417;SDS011;63997;52.112;5.420;2023-02-03T04:15:19;8.63;;;2.38;;
75417;SDS011;63997;52.112;5.420;2023-02-03T04:17:45;5.72;;;0.88;;
75417;SDS011;63997;52.112;5.420;2023-02-03T04:20:12;4.60;;;0.70;;
75417;SDS011;63997;52.112;5.420;2023-02-03T04:22:39;4.90;;;0.50;;
75417;SDS011;63997;52.112;5.420;2023-02-03T04:25:06;5.63;;;0.60;;
75417;SDS011;63997;52.112;5.420;2023-02-03T04:27:33;5.20;;;0.80;;
75417;SDS011;63997;52.112;5.420;2023-02-03T04:29:59;4.28;;;0.73;;
75417;SDS011;63997;52.112;5.420;2023-02-03T04:32:26;5.53;;;1.13;;
75417;SDS011;63997;52.112;5.420;2023-02-03T04:34:52;5.13;;;0.67;;
75417;SDS011;63997;52.112;5.420;2023-02-03T04:37:19;3.20;;;0.55;;
75417;SDS011;63997;52.112;5.420;2023-02-03T04:39:48;6.47;;;1.33;;
75417;SDS011;63997;52.112;5.420;2023-02-03T04:42:17;2.75;;;0.43;;
75417;SDS011;63997;52.112;5.420;2023-02-03T04:44:44;4.82;;;0.80;;
75417;SDS011;63997;52.112;5.420;2023-02-03T04:47:10;5.37;;;1.40;;
75417;SDS011;63997;52.112;5.420;2023-02-03T04:49:36;4.25;;;0.60;;
75417;SDS011;63997;52.112;5.420;2023-02-03T04:52:03;5.85;;;0.60;;
75417;SDS011;63997;52.112;5.420;2023-02-03T04:54:29;4.55;;;0.60;;
75417;SDS011;63997;52.112;5.420;2023-02-03T04:56:56;4.72;;;0.90;;
75417;SDS011;63997;52.112;5.420;2023-02-03T04:59:22;6.70;;;0.70;;
75417;SDS011;63997;52.112;5.420;2023-02-03T05:01:49;3.50;;;0.60;;
75417;SDS011;63997;52.112;5.420;2023-02-03T05:04:15;2.65;;;0.60;;
75417;SDS011;63997;52.112;5.420;2023-02-03T05:06:42;3.17;;;1.20;;
75417;SDS011;63997;52.112;5.420;2023-02-03T05:09:08;6.47;;;0.85;;
75417;SDS011;63997;52.112;5.420;2023-02-03T05:11:35;5.43;;;0.80;;
75417;SDS011;63997;52.112;5.420;2023-02-03T05:14:02;4.32;;;0.65;;
75417;SDS011;63997;52.112;5.420;2023-02-03T05:16:28;7.32;;;0.47;;
75417;SDS011;63997;52.112;5.420;2023-02-03T05:18:55;6.05;;;0.60;;
75417;SDS011;63997;52.112;5.420;2023-02-03T05:21:21;3.42;;;0.80;;
75417;SDS011;63997;52.112;5.420;2023-02-03T05:23:48;5.23;;;0.33;;
75417;SDS011;63997;52.112;5.420;2023-02-03T05:26:14;4.00;;;0.40;;
75417;SDS011;63997;52.112;5.420;2023-02-03T05:28:41;5.85;;;0.70;;
75417;SDS011;63997;52.112;5.420;2023-02-03T05:31:07;8.45;;;0.70;;
75417;SDS011;63997;52.112;5.420;2023-02-03T05:33:34;5.85;;;0.73;;
75417;SDS011;63997;52.112;5.420;2023-02-03T05:36:00;1.47;;;0.43;;
75417;SDS011;63997;52.112;5.420;2023-02-03T05:38:27;3.80;;;0.50;;
75417;SDS011;63997;52.112;5.420;2023-02-03T05:40:53;5.65;;;0.60;;
75417;SDS011;63997;52.112;5.420;2023-02-03T05:43:38;4.00;;;0.70;;
75417;SDS011;63997;52.112;5.420;2023-02-03T05:46:05;2.90;;;0.60;;
75417;SDS011;63997;52.112;5.420;2023-02-03T05:48:32;6.37;;;1.20;;
75417;SDS011;63997;52.112;5.420;2023-02-03T05:50:59;5.85;;;0.47;;
75417;SDS011;63997;52.112;5.420;2023-02-03T05:53:26;5.47;;;0.90;;
75417;SDS011;63997;52.112;5.420;2023-02-03T05:55:52;3.55;;;0.50;;
75417;SDS011;63997;52.112;5.420;2023-02-03T05:58:19;4.07;;;0.68;;
75417;SDS011;63997;52.112;5.420;2023-02-03T06:00:45;3.80;;;0.47;;
75417;SDS011;63997;52.112;5.420;2023-02-03T06:03:12;9.00;;;1.10;;
75417;SDS011;63997;52.112;5.420;2023-02-03T06:05:38;2.95;;;0.63;;
75417;SDS011;63997;52.112;5.420;2023-02-03T06:08:06;8.80;;;0.88;;
75417;SDS011;63997;52.112;5.420;2023-02-03T06:10:33;5.28;;;0.70;;
75417;SDS011;63997;52.112;5.420;2023-02-03T06:13:06;3.23;;;0.70;;
75417;SDS011;63997;52.112;5.420;2023-02-03T06:15:35;2.65;;;0.60;;
75417;SDS011;63997;52.112;5.420;2023-02-03T06:18:01;6.60;;;0.77;;
75417;SDS011;63997;52.112;5.420;2023-02-03T06:20:28;5.65;;;0.80;;
75417;SDS011;63997;52.112;5.420;2023-02-03T06:22:55;3.20;;;0.47;;
75417;SDS011;63997;52.112;5.420;2023-02-03T06:25:22;2.23;;;0.43;;
75417;SDS011;63997;52.112;5.420;2023-02-03T06:27:49;6.18;;;0.80;;
75417;SDS011;63997;52.112;5.420;2023-02-03T06:30:16;4.88;;;0.98;;
75417;SDS011;63997;52.112;5.420;2023-02-03T06:32:43;6.75;;;0.55;;
75417;SDS011;63997;52.112;5.420;2023-02-03T06:35:12;3.67;;;0.70;;
75417;SDS011;63997;52.112;5.420;2023-02-03T06:37:38;6.77;;;1.10;;
75417;SDS011;63997;52.112;5.420;2023-02-03T06:40:05;5.15;;;1.23;;
75417;SDS011;63997;52.112;5.420;2023-02-03T06:42:32;6.22;;;1.10;;
75417;SDS011;63997;52.112;5.420;2023-02-03T06:44:59;5.45;;;0.65;;
75417;SDS011;63997;52.112;5.420;2023-02-03T06:47:25;6.95;;;0.75;;
75417;SDS011;63997;52.112;5.420;2023-02-03T06:49:52;9.20;;;0.90;;
75417;SDS011;63997;52.112;5.420;2023-02-03T06:52:18;5.63;;;0.63;;
75417;SDS011;63997;52.112;5.420;2023-02-03T06:54:47;8.07;;;1.27;;
75417;SDS011;63997;52.112;5.420;2023-02-03T06:57:13;3.90;;;0.70;;
75417;SDS011;63997;52.112;5.420;2023-02-03T06:59:40;4.43;;;0.82;;
75417;SDS011;63997;52.112;5.420;2023-02-03T07:02:06;10.83;;;1.33;;
75417;SDS011;63997;52.112;5.420;2023-02-03T07:04:32;4.72;;;0.65;;
75417;SDS011;63997;52.112;5.420;2023-02-03T07:06:59;4.55;;;1.25;;
75417;SDS011;63997;52.112;5.420;2023-02-03T07:09:25;9.40;;;0.90;;
75417;SDS011;63997;52.112;5.420;2023-02-03T07:11:52;4.22;;;0.93;;
75417;SDS011;63997;52.112;5.420;2023-02-03T07:14:18;5.50;;;1.23;;
75417;SDS011;63997;52.112;5.420;2023-02-03T07:16:44;5.35;;;1.38;;
75417;SDS011;63997;52.112;5.420;2023-02-03T07:19:11;7.43;;;1.38;;
75417;SDS011;63997;52.112;5.420;2023-02-03T07:21:37;11.07;;;1.08;;
75417;SDS011;63997;52.112;5.420;2023-02-03T07:24:04;5.13;;;0.68;;
75417;SDS011;63997;52.112;5.420;2023-02-03T07:26:30;10.00;;;0.80;;
75417;SDS011;63997;52.112;5.420;2023-02-03T07:28:57;9.25;;;1.00;;
75417;SDS011;63997;52.112;5.420;2023-02-03T07:31:26;3.60;;;0.77;;
75417;SDS011;63997;52.112;5.420;2023-02-03T07:33:52;6.57;;;0.80;;
75417;SDS011;63997;52.112;5.420;2023-02-03T07:36:19;5.18;;;0.50;;
75417;SDS011;63997;52.112;5.420;2023-02-03T07:38:45;6.83;;;1.17;;
75417;SDS011;63997;52.112;5.420;2023-02-03T07:41:12;7.25;;;0.95;;
75417;SDS011;63997;52.112;5.420;2023-02-03T07:43:38;3.22;;;0.80;;
75417;SDS011;63997;52.112;5.420;2023-02-03T07:46:04;5.45;;;0.77;;
75417;SDS011;63997;52.112;5.420;2023-02-03T07:48:31;7.15;;;0.88;;
75417;SDS011;63997;52.112;5.420;2023-02-03T07:50:57;7.40;;;1.40;;
75417;SDS011;63997;52.112;5.420;2023-02-03T07:53:24;4.95;;;1.42;;
75417;SDS011;63997;52.112;5.420;2023-02-03T07:55:50;8.57;;;0.85;;
75417;SDS011;63997;52.112;5.420;2023-02-03T07:58:16;5.32;;;0.90;;
75417;SDS011;63997;52.112;5.420;2023-02-03T08:00:43;11.13;;;1.30;;
75417;SDS011;63997;52.112;5.420;2023-02-03T08:03:09;6.70;;;0.50;;
75417;SDS011;63997;52.112;5.420;2023-02-03T08:05:36;4.15;;;0.80;;
75417;SDS011;63997;52.112;5.420;2023-02-03T08:08:03;7.28;;;1.00;;
75417;SDS011;63997;52.112;5.420;2023-02-03T08:10:29;11.38;;;1.35;;
75417;SDS011;63997;52.112;5.420;2023-02-03T08:12:56;9.63;;;1.30;;
75417;SDS011;63997;52.112;5.420;2023-02-03T08:15:23;8.47;;;1.13;;
75417;SDS011;63997;52.112;5.420;2023-02-03T08:17:49;5.10;;;0.85;;
75417;SDS011;63997;52.112;5.420;2023-02-03T08:20:16;4.80;;;0.88;;
75417;SDS011;63997;52.112;5.420;2023-02-03T08:22:43;4.47;;;0.70;;
75417;SDS011;63997;52.112;5.420;2023-02-03T08:25:11;6.22;;;0.63;;
75417;SDS011;63997;52.112;5.420;2023-02-03T08:27:38;6.03;;;0.97;;
75417;SDS011;63997;52.112;5.420;2023-02-03T08:30:05;4.93;;;0.73;;
75417;SDS011;63997;52.112;5.420;2023-02-03T08:32:33;6.13;;;1.27;;
75417;SDS011;63997;52.112;5.420;2023-02-03T08:35:00;5.22;;;0.60;;
75417;SDS011;63997;52.112;5.420;2023-02-03T08:37:28;8.32;;;1.35;;
75417;SDS011;63997;52.112;5.420;2023-02-03T08:39:57;6.73;;;0.63;;
75417;SDS011;63997;52.112;5.420;2023-02-03T08:42:25;4.88;;;0.80;;
75417;SDS011;63997;52.112;5.420;2023-02-03T08:44:52;7.70;;;0.70;;
75417;SDS011;63997;52.112;5.420;2023-02-03T08:47:18;6.85;;;0.90;;
75417;SDS011;63997;52.112;5.420;2023-02-03T08:49:44;4.57;;;0.82;;
75417;SDS011;63997;52.112;5.420;2023-02-03T08:52:11;10.60;;;1.33;;
75417;SDS011;63997;52.112;5.420;2023-02-03T08:54:38;5.85;;;1.05;;
75417;SDS011;63997;52.112;5.420;2023-02-03T08:57:05;6.55;;;0.90;;
75417;SDS011;63997;52.112;5.420;2023-02-03T08:59:31;6.45;;;0.98;;
75417;SDS011;63997;52.112;5.420;2023-02-03T09:02:02;4.07;;;1.10;;
75417;SDS011;63997;52.112;5.420;2023-02-03T09:04:29;6.50;;;1.47;;
75417;SDS011;63997;52.112;5.420;2023-02-03T09:06:58;3.83;;;0.77;;
75417;SDS011;63997;52.112;5.420;2023-02-03T09:09:26;8.35;;;0.90;;
75417;SDS011;63997;52.112;5.420;2023-02-03T09:11:54;6.70;;;1.17;;
75417;SDS011;63997;52.112;5.420;2023-02-03T09:14:30;11.30;;;1.25;;
75417;SDS011;63997;52.112;5.420;2023-02-03T09:17:00;8.53;;;1.30;;
75417;SDS011;63997;52.112;5.420;2023-02-03T09:19:28;7.82;;;1.45;;
75417;SDS011;63997;52.112;5.420;2023-02-03T09:21:55;4.95;;;0.55;;
75417;SDS011;63997;52.112;5.420;2023-02-03T09:24:23;8.13;;;1.20;;
75417;SDS011;63997;52.112;5.420;2023-02-03T09:26:49;8.77;;;2.25;;
75417;SDS011;63997;52.112;5.420;2023-02-03T09:29:16;6.47;;;1.40;;
75417;SDS011;63997;52.112;5.420;2023-02-03T09:31:42;6.18;;;0.77;;
75417;SDS011;63997;52.112;5.420;2023-02-03T09:34:09;6.90;;;0.75;;
75417;SDS011;63997;52.112;5.420;2023-02-03T09:36:35;16.02;;;1.13;;
75417;SDS011;63997;52.112;5.420;2023-02-03T09:39:02;7.85;;;1.30;;
75417;SDS011;63997;52.112;5.420;2023-02-03T09:41:39;4.23;;;0.70;;
75417;SDS011;63997;52.112;5.420;2023-02-03T09:44:25;5.88;;;1.25;;
75417;SDS011;63997;52.112;5.420;2023-02-03T09:47:02;10.70;;;1.50;;
75417;SDS011;63997;52.112;5.420;2023-02-03T09:49:36;5.47;;;0.80;;
75417;SDS011;63997;52.112;5.420;2023-02-03T09:52:17;8.63;;;1.40;;
75417;SDS011;63997;52.112;5.420;2023-02-03T09:57:36;4.88;;;0.80;;
75417;SDS011;63997;52.112;5.420;2023-02-03T10:07:57;6.63;;;0.83;;
75417;SDS011;63997;52.112;5.420;2023-02-03T10:11:12;1.38;;;0.68;;
75417;SDS011;63997;52.112;5.420;2023-02-03T10:16:44;8.73;;;0.88;;
75417;SDS011;63997;52.112;5.420;2023-02-03T10:19:26;5.68;;;1.10;;
75417;SDS011;63997;52.112;5.420;2023-02-03T10:22:02;4.83;;;0.73;;
75417;SDS011;63997;52.112;5.420;2023-02-03T10:24:37;8.10;;;0.80;;
75417;SDS011;63997;52.112;5.420;2023-02-03T10:27:17;8.43;;;1.20;;
75417;SDS011;63997;52.112;5.420;2023-02-03T10:29:50;4.97;;;0.63;;
75417;SDS011;63997;52.112;5.420;2023-02-03T10:32:22;5.03;;;1.00;;
75417;SDS011;63997;52.112;5.420;2023-02-03T10:34:49;3.87;;;0.63;;
75417;SDS011;63997;52.112;5.420;2023-02-03T10:37:27;4.05;;;0.80;;
75417;SDS011;63997;52.112;5.420;2023-02-03T10:39:56;5.95;;;0.70;;
75417;SDS011;63997;52.112;5.420;2023-02-03T10:42:24;5.40;;;0.98;;
75417;SDS011;63997;52.112;5.420;2023-02-03T10:45:12;6.43;;;0.98;;
75417;SDS011;63997;52.112;5.420;2023-02-03T10:47:40;4.67;;;0.77;;
75417;SDS011;63997;52.112;5.420;2023-02-03T10:50:15;2.58;;;0.50;;
75417;SDS011;63997;52.112;5.420;2023-02-03T10:52:42;4.40;;;1.00;;
75417;SDS011;63997;52.112;5.420;2023-02-03T10:57:47;5.53;;;0.70;;
75417;SDS011;63997;52.112;5.420;2023-02-03T11:02:53;4.32;;;1.02;;
75417;SDS011;63997;52.112;5.420;2023-02-03T11:05:40;3.22;;;1.15;;
75417;SDS011;63997;52.112;5.420;2023-02-03T11:08:13;2.40;;;0.80;;
75417;SDS011;63997;52.112;5.420;2023-02-03T11:10:41;6.43;;;1.13;;
75417;SDS011;63997;52.112;5.420;2023-02-03T11:13:21;4.73;;;0.80;;
75417;SDS011;63997;52.112;5.420;2023-02-03T11:16:03;5.85;;;0.93;;
75417;SDS011;63997;52.112;5.420;2023-02-03T11:18:43;2.78;;;0.73;;
75417;SDS011;63997;52.112;5.420;2023-02-03T11:21:17;9.02;;;0.90;;
75417;SDS011;63997;52.112;5.420;2023-02-03T11:26:49;2.87;;;0.70;;
75417;SDS011;63997;52.112;5.420;2023-02-03T11:29:23;5.65;;;0.93;;
75417;SDS011;63997;52.112;5.420;2023-02-03T11:31:54;7.55;;;0.80;;
75417;SDS011;63997;52.112;5.420;2023-02-03T11:34:34;6.15;;;1.20;;
75417;SDS011;63997;52.112;5.420;2023-02-03T11:37:09;3.92;;;0.70;;
75417;SDS011;63997;52.112;5.420;2023-02-03T11:42:36;4.57;;;0.88;;
75417;SDS011;63997;52.112;5.420;2023-02-03T11:47:53;4.55;;;1.00;;
75417;SDS011;63997;52.112;5.420;2023-02-03T11:53:11;4.70;;;0.80;;
75417;SDS011;63997;52.112;5.420;2023-02-03T12:12:13;4.72;;;1.00;;
75417;SDS011;63997;52.112;5.420;2023-02-03T12:17:44;5.10;;;0.85;;
75417;SDS011;63997;52.112;5.420;2023-02-03T12:23:10;3.45;;;0.90;;
75417;SDS011;63997;52.112;5.420;2023-02-03T12:31:08;9.23;;;0.93;;
75417;SDS011;63997;52.112;5.420;2023-02-03T12:33:42;6.70;;;1.30;;
75417;SDS011;63997;52.112;5.420;2023-02-03T12:39:00;5.57;;;1.10;;
75417;SDS011;63997;52.112;5.420;2023-02-03T12:41:33;5.13;;;1.25;;
75417;SDS011;63997;52.112;5.420;2023-02-03T12:44:15;4.65;;;0.60;;
75417;SDS011;63997;52.112;5.420;2023-02-03T12:47:03;4.10;;;1.33;;
75417;SDS011;63997;52.112;5.420;2023-02-03T12:49:52;8.55;;;1.58;;
75417;SDS011;63997;52.112;5.420;2023-02-03T12:52:27;7.18;;;1.40;;
75417;SDS011;63997;52.112;5.420;2023-02-03T12:55:07;7.72;;;1.15;;
75417;SDS011;63997;52.112;5.420;2023-02-03T12:58:01;6.97;;;1.20;;
75417;SDS011;63997;52.112;5.420;2023-02-03T13:03:31;8.45;;;1.58;;
75417;SDS011;63997;52.112;5.420;2023-02-03T13:09:13;7.47;;;1.60;;
75417;SDS011;63997;52.112;5.420;2023-02-03T13:11:53;8.63;;;1.45;;
75417;SDS011;63997;52.112;5.420;2023-02-03T13:20:01;6.28;;;1.20;;
75417;SDS011;63997;52.112;5.420;2023-02-03T13:22:38;12.57;;;1.98;;
75417;SDS011;63997;52.112;5.420;2023-02-03T13:25:08;9.48;;;1.65;;
75417;SDS011;63997;52.112;5.420;2023-02-03T13:30:48;11.23;;;1.30;;
75417;SDS011;63997;52.112;5.420;2023-02-03T13:41:50;11.87;;;1.40;;
75417;SDS011;63997;52.112;5.420;2023-02-03T13:44:21;6.07;;;1.67;;
75417;SDS011;63997;52.112;5.420;2023-02-03T13:46:56;4.25;;;1.45;;
75417;SDS011;63997;52.112;5.420;2023-02-03T13:49:25;11.18;;;1.80;;
75417;SDS011;63997;52.112;5.420;2023-02-03T13:51:54;8.23;;;1.45;;
75417;SDS011;63997;52.112;5.420;2023-02-03T13:57:23;8.65;;;1.58;;
75417;SDS011;63997;52.112;5.420;2023-02-03T14:00:01;7.43;;;1.52;;
75417;SDS011;63997;52.112;5.420;2023-02-03T14:02:41;10.32;;;1.33;;
75417;SDS011;63997;52.112;5.420;2023-02-03T14:05:43;9.52;;;1.73;;
75417;SDS011;63997;52.112;5.420;2023-02-03T14:16:33;13.27;;;1.60;;
75417;SDS011;63997;52.112;5.420;2023-02-03T14:19:04;9.15;;;1.58;;
75417;SDS011;63997;52.112;5.420;2023-02-03T14:24:16;14.65;;;1.23;;
75417;SDS011;63997;52.112;5.420;2023-02-03T14:26:45;14.07;;;2.00;;
75417;SDS011;63997;52.112;5.420;2023-02-03T14:29:25;15.35;;;2.40;;
75417;SDS011;63997;52.112;5.420;2023-02-03T14:31:56;8.40;;;1.73;;
75417;SDS011;63997;52.112;5.420;2023-02-03T14:34:42;12.50;;;3.67;;
75417;SDS011;63997;52.112;5.420;2023-02-03T14:39:56;15.35;;;2.58;;
75417;SDS011;63997;52.112;5.420;2023-02-03T14:43:21;12.05;;;1.70;;
75417;SDS011;63997;52.112;5.420;2023-02-03T14:58:34;14.50;;;2.05;;
75417;SDS011;63997;52.112;5.420;2023-02-03T15:01:26;14.20;;;1.43;;
75417;SDS011;63997;52.112;5.420;2023-02-03T15:06:42;19.05;;;2.63;;
75417;SDS011;63997;52.112;5.420;2023-02-03T15:12:23;20.30;;;2.60;;
75417;SDS011;63997;52.112;5.420;2023-02-03T15:15:40;15.00;;;2.33;;
75417;SDS011;63997;52.112;5.420;2023-02-03T15:18:21;16.35;;;2.50;;
75417;SDS011;63997;52.112;5.420;2023-02-03T15:20:54;15.25;;;2.95;;
75417;SDS011;63997;52.112;5.420;2023-02-03T15:23:27;10.82;;;2.35;;
75417;SDS011;63997;52.112;5.420;2023-02-03T15:26:07;10.13;;;1.17;;
75417;SDS011;63997;52.112;5.420;2023-02-03T15:28:37;13.00;;;1.40;;
75417;SDS011;63997;52.112;5.420;2023-02-03T15:31:06;11.55;;;1.75;;
75417;SDS011;63997;52.112;5.420;2023-02-03T15:33:40;11.68;;;2.63;;
75417;SDS011;63997;52.112;5.420;2023-02-03T15:36:18;20.80;;;1.75;;
75417;SDS011;63997;52.112;5.420;2023-02-03T15:38:48;16.25;;;2.45;;
75417;SDS011;63997;52.112;5.420;2023-02-03T15:41:21;17.87;;;2.83;;
75417;SDS011;63997;52.112;5.420;2023-02-03T15:43:57;12.98;;;1.98;;
75417;SDS011;63997;52.112;5.420;2023-02-03T15:46:35;13.13;;;1.90;;
75417;SDS011;63997;52.112;5.420;2023-02-03T15:49:07;15.25;;;1.98;;
75417;SDS011;63997;52.112;5.420;2023-02-03T15:51:48;18.77;;;1.92;;
75417;SDS011;63997;52.112;5.420;2023-02-03T15:54:23;14.60;;;1.50;;
75417;SDS011;63997;52.112;5.420;2023-02-03T15:56:59;13.32;;;1.77;;
75417;SDS011;63997;52.112;5.420;2023-02-03T15:59:39;14.98;;;1.90;;
75417;SDS011;63997;52.112;5.420;2023-02-03T16:02:18;12.50;;;2.10;;
75417;SDS011;63997;52.112;5.420;2023-02-03T16:04:48;15.35;;;2.17;;
75417;SDS011;63997;52.112;5.420;2023-02-03T16:07:17;18.63;;;2.70;;
75417;SDS011;63997;52.112;5.420;2023-02-03T16:09:46;16.45;;;2.42;;
75417;SDS011;63997;52.112;5.420;2023-02-03T16:12:26;15.70;;;1.90;;
75417;SDS011;63997;52.112;5.420;2023-02-03T16:14:59;16.52;;;1.70;;
75417;SDS011;63997;52.112;5.420;2023-02-03T16:17:36;14.00;;;2.13;;
75417;SDS011;63997;52.112;5.420;2023-02-03T16:22:40;17.20;;;1.85;;
75417;SDS011;63997;52.112;5.420;2023-02-03T16:25:19;10.82;;;1.77;;
75417;SDS011;63997;52.112;5.420;2023-02-03T16:28:33;18.48;;;2.08;;
75417;SDS011;63997;52.112;5.420;2023-02-03T16:31:07;13.40;;;2.10;;
75417;SDS011;63997;52.112;5.420;2023-02-03T16:33:59;13.27;;;1.47;;
75417;SDS011;63997;52.112;5.420;2023-02-03T16:36:57;13.52;;;1.48;;
75417;SDS011;63997;52.112;5.420;2023-02-03T16:39:43;12.43;;;2.20;;
75417;SDS011;63997;52.112;5.420;2023-02-03T16:42:35;14.70;;;2.42;;
75417;SDS011;63997;52.112;5.420;2023-02-03T16:45:24;13.90;;;3.10;;
75417;SDS011;63997;52.112;5.420;2023-02-03T16:48:09;9.40;;;1.60;;
75417;SDS011;63997;52.112;5.420;2023-02-03T16:51:00;17.08;;;2.15;;
75417;SDS011;63997;52.112;5.420;2023-02-03T16:53:30;13.57;;;2.22;;
75417;SDS011;63997;52.112;5.420;2023-02-03T16:55:59;13.73;;;1.80;;
75417;SDS011;63997;52.112;5.420;2023-02-03T16:58:27;18.60;;;2.63;;
75417;SDS011;63997;52.112;5.420;2023-02-03T17:00:54;13.83;;;2.10;;
75417;SDS011;63997;52.112;5.420;2023-02-03T17:03:23;17.50;;;2.25;;
75417;SDS011;63997;52.112;5.420;2023-02-03T17:05:54;15.63;;;2.20;;
75417;SDS011;63997;52.112;5.420;2023-02-03T17:08:24;21.88;;;2.22;;
75417;SDS011;63997;52.112;5.420;2023-02-03T17:10:51;6.95;;;1.45;;
75417;SDS011;63997;52.112;5.420;2023-02-03T17:13:18;18.03;;;2.40;;
75417;SDS011;63997;52.112;5.420;2023-02-03T17:15:47;18.23;;;2.92;;
75417;SDS011;63997;52.112;5.420;2023-02-03T17:18:15;13.90;;;2.58;;
75417;SDS011;63997;52.112;5.420;2023-02-03T17:20:42;18.92;;;2.70;;
75417;SDS011;63997;52.112;5.420;2023-02-03T17:23:09;21.42;;;2.08;;
75417;SDS011;63997;52.112;5.420;2023-02-03T17:25:36;12.23;;;1.70;;
75417;SDS011;63997;52.112;5.420;2023-02-03T17:28:04;13.25;;;2.30;;
75417;SDS011;63997;52.112;5.420;2023-02-03T17:30:33;15.82;;;2.10;;
75417;SDS011;63997;52.112;5.420;2023-02-03T17:33:01;18.27;;;2.83;;
75417;SDS011;63997;52.112;5.420;2023-02-03T17:35:42;10.52;;;1.83;;